Time;durP1;ratioP1;P1;durP2;ratioP2;P2;SDS_P1;SDS_P2;PMS_P1;PMS_P2;Temp;Humidity;BMP_temperature;BMP_pressure;BME280_temperature;BME280_humidity;BME280_pressure;Samples;Min_cycle;Max_cycle;Signal;HPM_P1;HPM_P2
2023/03/23 00:01:06;;;;;;;1.63;0.80;;;11.50;90.10;;;;;;5071297;28;20424;-68
2023/03/23 00:03:32;;;;;;;5.87;1.33;;;11.60;89.90;;;;;;5070480;28;20439;-68
2023/03/23 00:06:02;;;;;;;1.87;1.03;;;11.50;90.00;;;;;;5070842;28;20923;-68
2023/03/23 00:08:28;;;;;;;1.57;0.80;;;11.50;90.00;;;;;;5070670;28;20459;-68
2023/03/23 00:10:56;;;;;;;2.00;1.10;;;11.60;89.70;;;;;;5070906;28;20414;-68
2023/03/23 00:13:23;;;;;;;2.60;1.20;;;11.60;89.70;;;;;;5070105;28;20185;-68
2023/03/23 00:15:51;;;;;;;5.53;1.20;;;11.60;90.00;;;;;;5071231;28;20844;-68
2023/03/23 00:18:20;;;;;;;3.10;1.13;;;11.60;90.10;;;;;;5070890;28;21541;-68
2023/03/23 00:20:48;;;;;;;4.20;1.13;;;11.50;89.50;;;;;;5070558;28;20426;-68
2023/03/23 00:23:18;;;;;;;2.20;0.93;;;11.40;89.60;;;;;;5070311;28;21157;-68
2023/03/23 00:25:48;;;;;;;1.90;1.10;;;11.50;89.90;;;;;;5070794;28;20421;-68
2023/03/23 00:28:16;;;;;;;2.53;1.17;;;11.40;90.10;;;;;;5070401;28;20459;-68
2023/03/23 00:30:44;;;;;;;3.00;1.20;;;11.40;89.80;;;;;;5071172;28;20523;-68
2023/03/23 00:33:12;;;;;;;2.40;1.03;;;11.50;90.00;;;;;;5070492;28;20448;-68
2023/03/23 00:35:39;;;;;;;11.00;1.43;;;11.40;90.30;;;;;;5070544;28;20415;-68
2023/03/23 00:38:05;;;;;;;2.90;1.33;;;11.40;90.60;;;;;;5070859;28;20864;-68
2023/03/23 00:40:31;;;;;;;8.93;1.53;;;11.30;90.90;;;;;;5070749;28;20431;-68
2023/03/23 00:42:56;;;;;;;1.40;0.70;;;11.20;90.90;;;;;;5069573;28;20430;-68
2023/03/23 00:45:23;;;;;;;1.40;0.67;;;11.20;91.30;;;;;;5070817;28;20177;-69
2023/03/23 00:47:50;;;;;;;1.67;0.93;;;11.10;91.70;;;;;;5070537;28;20206;-68
2023/03/23 00:50:17;;;;;;;1.93;0.97;;;11.10;92.00;;;;;;5070004;28;20419;-68
2023/03/23 00:52:43;;;;;;;3.00;1.03;;;11.00;92.30;;;;;;5070038;28;20425;-68
2023/03/23 00:55:09;;;;;;;1.70;1.00;;;11.00;92.40;;;;;;5070469;28;20872;-68
2023/03/23 00:57:35;;;;;;;2.80;0.97;;;11.00;92.70;;;;;;5069978;28;20200;-68
2023/03/23 01:00:01;;;;;;;1.60;0.83;;;11.00;92.60;;;;;;5070676;28;20317;-68
2023/03/23 01:02:26;;;;;;;2.20;1.13;;;10.90;92.80;;;;;;5070081;28;20227;-68
2023/03/23 01:04:52;;;;;;;1.87;1.10;;;10.80;92.40;;;;;;5069944;28;20466;-68
2023/03/23 01:07:20;;;;;;;2.63;1.10;;;10.90;92.10;;;;;;5070325;28;20292;-68
2023/03/23 01:09:46;;;;;;;2.50;1.00;;;10.90;91.60;;;;;;5070307;28;20178;-68
2023/03/23 01:12:12;;;;;;;2.63;0.90;;;10.90;91.50;;;;;;5069992;28;20415;-68
2023/03/23 01:14:38;;;;;;;1.57;0.80;;;11.00;91.50;;;;;;5069998;28;20411;-68
2023/03/23 01:17:04;;;;;;;2.30;1.00;;;11.00;91.30;;;;;;5070411;28;20181;-68
2023/03/23 01:19:29;;;;;;;3.30;1.47;;;11.00;91.40;;;;;;5070235;28;20185;-68
2023/03/23 01:21:55;;;;;;;2.67;1.27;;;11.00;91.30;;;;;;5069670;28;20448;-68
2023/03/23 01:24:21;;;;;;;4.40;1.17;;;11.00;91.30;;;;;;5070323;28;20181;-68
2023/03/23 01:26:47;;;;;;;2.40;0.90;;;11.00;91.50;;;;;;5070293;28;20185;-68
2023/03/23 01:29:13;;;;;;;3.93;1.27;;;11.00;91.30;;;;;;5069639;28;20212;-68
2023/03/23 01:31:39;;;;;;;1.60;0.70;;;11.10;91.70;;;;;;5069721;28;21099;-68
2023/03/23 01:34:05;;;;;;;2.43;0.80;;;11.00;91.30;;;;;;5069880;28;20501;-68
2023/03/23 01:36:32;;;;;;;5.43;0.70;;;11.10;91.00;;;;;;5070525;28;20187;-68
2023/03/23 01:39:00;;;;;;;2.23;0.93;;;11.10;91.10;;;;;;5073939;28;21028;-68
2023/03/23 01:41:26;;;;;;;1.87;0.83;;;11.10;91.10;;;;;;5073616;28;20900;-69
2023/03/23 01:44:01;;;;;;;2.03;1.03;;;11.20;91.20;;;;;;5073304;28;20777;-68
2023/03/23 01:46:30;;;;;;;2.00;1.00;;;11.20;91.40;;;;;;5073715;28;20414;-68
2023/03/23 01:48:57;;;;;;;3.00;1.13;;;11.30;91.00;;;;;;5073678;28;21121;-68
2023/03/23 01:51:24;;;;;;;1.80;0.93;;;11.50;91.10;;;;;;5073018;28;20427;-68
2023/03/23 01:53:56;;;;;;;2.43;1.10;;;11.50;91.00;;;;;;5073347;28;20465;-68
2023/03/23 01:56:26;;;;;;;2.27;0.90;;;11.60;91.20;;;;;;5073535;28;20434;-68
2023/03/23 01:58:55;;;;;;;1.40;0.70;;;11.50;91.00;;;;;;5073103;28;20421;-68
2023/03/23 02:01:21;;;;;;;2.13;1.00;;;11.60;91.40;;;;;;5072619;28;20415;-68
2023/03/23 02:03:48;;;;;;;1.87;0.80;;;11.60;91.00;;;;;;5073180;28;20423;-68
2023/03/23 02:06:14;;;;;;;4.43;1.23;;;11.70;90.90;;;;;;5060215;28;20869;-68
2023/03/23 02:08:43;;;;;;;2.00;0.90;;;11.70;91.10;;;;;;5073361;28;21007;-68
2023/03/23 02:11:21;;;;;;;1.57;0.70;;;11.70;91.30;;;;;;5073312;28;20416;-68
2023/03/23 02:13:48;;;;;;;2.23;1.10;;;11.60;91.20;;;;;;5072209;28;20411;-68
2023/03/23 02:16:24;;;;;;;2.13;0.87;;;11.70;91.10;;;;;;5073416;28;20407;-68
2023/03/23 02:19:18;;;;;;;2.80;1.07;;;11.70;91.10;;;;;;5073138;28;20530;-68
2023/03/23 02:22:14;;;;;;;2.70;1.20;;;11.70;91.10;;;;;;5072280;28;20461;-68
2023/03/23 02:24:48;;;;;;;3.13;1.40;;;11.70;91.10;;;;;;5073136;28;20447;-68
2023/03/23 02:27:43;;;;;;;3.17;1.03;;;11.70;91.20;;;;;;5072903;28;20415;-68
2023/03/23 02:30:20;;;;;;;2.13;1.10;;;11.70;91.00;;;;;;5072853;28;20412;-68
2023/03/23 02:32:46;;;;;;;3.80;1.10;;;11.70;91.00;;;;;;5072496;28;20506;-68
2023/03/23 02:35:28;;;;;;;1.50;0.70;;;11.60;91.00;;;;;;5072535;28;20882;-68
2023/03/23 02:38:04;;;;;;;2.50;0.97;;;11.70;90.80;;;;;;5072720;28;20192;-68
2023/03/23 02:40:42;;;;;;;2.90;1.20;;;11.80;91.00;;;;;;5060842;28;20460;-68
2023/03/23 02:43:13;;;;;;;1.90;0.80;;;11.70;90.70;;;;;;5071576;28;20429;-68
2023/03/23 02:45:39;;;;;;;3.70;1.60;;;11.70;90.60;;;;;;5072670;28;20505;-68
2023/03/23 02:48:07;;;;;;;1.47;0.77;;;11.80;90.60;;;;;;5072228;28;20470;-69
2023/03/23 02:50:35;;;;;;;2.20;0.90;;;11.80;90.70;;;;;;5072220;28;20443;-68
2023/03/23 02:53:03;;;;;;;2.43;1.17;;;11.70;90.60;;;;;;5072144;28;20415;-68
2023/03/23 02:55:30;;;;;;;2.17;0.97;;;11.70;90.70;;;;;;5072699;28;20415;-68
2023/03/23 02:57:56;;;;;;;4.20;1.37;;;11.80;90.60;;;;;;5072027;28;20886;-68
2023/03/23 03:00:22;;;;;;;2.23;0.73;;;11.80;91.00;;;;;;5072548;28;20423;-69
2023/03/23 03:02:54;;;;;;;2.53;1.20;;;11.70;90.70;;;;;;5071783;28;20204;-68
2023/03/23 03:05:43;;;;;;;1.93;0.93;;;11.70;90.60;;;;;;5072041;28;20215;-68
2023/03/23 03:08:27;;;;;;;4.50;1.07;;;11.70;90.80;;;;;;5071780;28;20486;-68
2023/03/23 03:11:07;;;;;;;2.77;1.07;;;11.80;90.80;;;;;;5072037;28;20446;-68
2023/03/23 03:13:52;;;;;;;1.30;0.60;;;11.70;90.80;;;;;;5070888;28;20892;-68
2023/03/23 03:16:38;;;;;;;3.30;1.00;;;11.70;91.10;;;;;;5071921;28;20414;-68
2023/03/23 03:19:25;;;;;;;2.57;1.03;;;11.60;91.00;;;;;;5071731;28;20443;-68
2023/03/23 03:21:54;;;;;;;1.60;0.90;;;11.60;91.20;;;;;;5071166;28;20919;-68
2023/03/23 03:24:21;;;;;;;4.00;1.20;;;11.60;91.40;;;;;;5071681;28;20951;-68
2023/03/23 03:26:51;;;;;;;1.63;0.70;;;11.60;91.40;;;;;;5071729;28;21246;-68
2023/03/23 03:29:19;;;;;;;1.97;1.00;;;11.60;91.60;;;;;;5071359;28;20466;-68
2023/03/23 03:31:47;;;;;;;2.90;0.77;;;11.60;91.60;;;;;;5071134;28;20419;-68
2023/03/23 03:34:17;;;;;;;4.60;1.83;;;11.60;91.70;;;;;;5071625;28;20693;-69
2023/03/23 03:36:46;;;;;;;2.33;1.00;;;11.60;91.70;;;;;;5071407;28;20430;-69
2023/03/23 03:39:15;;;;;;;2.23;0.93;;;11.60;92.10;;;;;;5071519;28;20416;-68
2023/03/23 03:41:41;;;;;;;1.60;0.70;;;11.60;91.60;;;;;;5071302;28;20481;-68
2023/03/23 03:44:07;;;;;;;2.17;0.80;;;11.70;91.50;;;;;;5071183;28;20423;-68
2023/03/23 03:46:34;;;;;;;2.30;1.20;;;11.70;91.50;;;;;;5071468;28;20433;-68
2023/03/23 03:49:02;;;;;;;2.13;0.90;;;11.80;91.40;;;;;;5071463;28;20204;-68
2023/03/23 03:51:29;;;;;;;2.43;0.90;;;11.80;91.40;;;;;;5070607;28;20510;-68
2023/03/23 03:53:55;;;;;;;2.83;1.30;;;11.80;91.50;;;;;;5071105;28;20431;-68
2023/03/23 03:56:22;;;;;;;4.30;1.00;;;11.80;91.60;;;;;;5071268;28;20411;-69
2023/03/23 03:58:49;;;;;;;1.53;0.70;;;11.70;91.80;;;;;;5070386;28;20420;-68
2023/03/23 04:01:15;;;;;;;4.30;0.80;;;11.80;91.70;;;;;;5070711;28;20430;-68
2023/03/23 04:03:41;;;;;;;2.20;1.00;;;11.80;91.90;;;;;;5070860;28;20423;-68
2023/03/23 04:06:08;;;;;;;1.47;0.80;;;11.80;91.60;;;;;;5066501;28;20434;-68
2023/03/23 04:08:35;;;;;;;2.80;0.70;;;11.80;91.50;;;;;;5063870;28;20558;-69
2023/03/23 04:11:01;;;;;;;4.43;0.97;;;11.80;91.50;;;;;;5071019;28;20517;-68
2023/03/23 04:13:26;;;;;;;1.77;0.90;;;12.00;91.50;;;;;;5066561;28;20559;-67
2023/03/23 04:15:52;;;;;;;2.07;0.90;;;11.90;91.60;;;;;;5070795;28;20180;-67
2023/03/23 04:18:19;;;;;;;3.40;0.90;;;11.90;91.60;;;;;;5069493;28;20185;-67
2023/03/23 04:20:48;;;;;;;1.50;0.77;;;11.90;91.80;;;;;;5070454;28;20180;-67
2023/03/23 04:23:19;;;;;;;2.30;0.93;;;11.90;92.00;;;;;;5070447;28;20518;-67
2023/03/23 04:25:46;;;;;;;2.80;0.90;;;11.90;91.60;;;;;;5058029;28;20415;-68
2023/03/23 04:28:13;;;;;;;3.00;1.17;;;11.80;91.70;;;;;;5070538;28;20574;-68
2023/03/23 04:30:38;;;;;;;4.23;0.93;;;11.80;91.80;;;;;;5071045;28;20426;-67
2023/03/23 04:33:04;;;;;;;5.13;0.90;;;11.90;91.70;;;;;;5070268;28;20438;-67
2023/03/23 04:35:30;;;;;;;3.20;1.00;;;11.90;91.60;;;;;;5070626;28;20185;-67
2023/03/23 04:37:56;;;;;;;3.00;0.90;;;11.90;91.60;;;;;;5070851;28;20177;-67
2023/03/23 04:40:23;;;;;;;1.70;0.70;;;11.90;91.60;;;;;;5070597;28;20183;-67
2023/03/23 04:42:51;;;;;;;2.37;1.07;;;11.90;91.60;;;;;;5069695;28;20484;-67
2023/03/23 04:45:21;;;;;;;1.60;0.80;;;11.80;91.80;;;;;;5070888;28;20426;-67
2023/03/23 04:47:53;;;;;;;1.50;0.60;;;11.70;92.10;;;;;;5070305;28;20549;-67
2023/03/23 04:50:21;;;;;;;5.53;0.70;;;11.70;92.10;;;;;;5070342;28;20416;-67
2023/03/23 04:52:47;;;;;;;1.53;0.80;;;11.70;92.00;;;;;;5069895;28;20423;-67
2023/03/23 04:55:14;;;;;;;4.03;0.90;;;11.60;92.10;;;;;;5070438;28;20490;-67
2023/03/23 04:57:40;;;;;;;3.17;1.10;;;11.60;92.20;;;;;;5070074;28;20457;-67
2023/03/23 05:00:12;;;;;;;1.60;0.93;;;11.60;92.10;;;;;;5070691;28;20462;-67
2023/03/23 05:02:39;;;;;;;2.90;1.00;;;11.60;92.00;;;;;;5069806;28;20533;-67
2023/03/23 05:05:06;;;;;;;3.10;1.10;;;11.70;92.10;;;;;;5069531;28;20426;-67
2023/03/23 05:07:32;;;;;;;2.80;0.80;;;11.70;92.10;;;;;;5070149;28;20531;-67
2023/03/23 05:09:57;;;;;;;1.70;0.87;;;11.80;91.90;;;;;;5070617;28;20480;-67
2023/03/23 05:12:23;;;;;;;2.30;0.70;;;11.70;91.70;;;;;;5073729;28;20181;-67
2023/03/23 05:14:49;;;;;;;1.40;0.70;;;11.90;91.70;;;;;;5074321;28;20177;-67
2023/03/23 05:17:16;;;;;;;2.00;0.97;;;12.00;91.70;;;;;;5074522;28;20195;-67
2023/03/23 05:19:44;;;;;;;2.07;0.80;;;12.00;91.50;;;;;;5074182;28;20185;-67
2023/03/23 05:22:12;;;;;;;1.70;0.70;;;12.10;91.30;;;;;;5073507;28;20898;-67
2023/03/23 05:24:38;;;;;;;3.03;1.10;;;12.10;90.90;;;;;;5074218;28;20438;-67
2023/03/23 05:27:04;;;;;;;1.80;0.80;;;12.20;91.00;;;;;;5074230;28;20424;-67
2023/03/23 05:29:33;;;;;;;1.50;1.00;;;12.20;90.80;;;;;;5073708;28;20671;-67
2023/03/23 05:32:02;;;;;;;3.90;1.00;;;12.30;90.60;;;;;;5073620;28;20177;-67
2023/03/23 05:34:28;;;;;;;1.47;0.80;;;12.40;90.70;;;;;;5073722;28;20411;-67
2023/03/23 05:36:55;;;;;;;2.43;1.10;;;12.40;90.70;;;;;;5073572;28;20407;-67
2023/03/23 05:39:21;;;;;;;2.70;1.10;;;12.40;90.70;;;;;;5073683;28;20419;-67
2023/03/23 05:41:47;;;;;;;1.60;0.80;;;12.40;90.60;;;;;;5070969;28;20427;-67
2023/03/23 05:44:15;;;;;;;3.00;1.37;;;12.50;90.30;;;;;;5072496;28;20431;-67
2023/03/23 05:46:41;;;;;;;2.30;1.07;;;12.60;90.30;;;;;;5070376;28;20185;-67
2023/03/23 05:49:07;;;;;;;2.10;1.00;;;12.50;90.40;;;;;;5071278;28;20469;-67
2023/03/23 05:51:33;;;;;;;3.03;1.33;;;12.50;90.60;;;;;;5072913;28;20173;-67
2023/03/23 05:53:58;;;;;;;1.83;0.97;;;12.50;90.50;;;;;;5073891;28;20445;-67
2023/03/23 05:56:24;;;;;;;1.47;0.70;;;12.60;90.40;;;;;;5073737;28;20230;-67
2023/03/23 05:58:50;;;;;;;3.00;0.97;;;12.60;90.50;;;;;;5073464;28;20256;-68
2023/03/23 06:01:16;;;;;;;2.87;1.00;;;12.60;90.40;;;;;;5073709;28;20423;-68
2023/03/23 06:03:42;;;;;;;4.60;0.77;;;12.60;90.40;;;;;;5073005;28;20266;-68
2023/03/23 06:06:11;;;;;;;2.30;1.30;;;12.70;90.40;;;;;;5073267;28;20185;-67
2023/03/23 06:08:39;;;;;;;1.90;0.97;;;12.60;90.60;;;;;;5073144;28;20224;-67
2023/03/23 06:11:05;;;;;;;2.70;0.97;;;12.60;90.60;;;;;;5073632;28;20422;-68
2023/03/23 06:13:31;;;;;;;1.70;0.90;;;12.70;90.40;;;;;;5072286;28;20435;-68
2023/03/23 06:15:57;;;;;;;1.50;0.80;;;12.70;90.50;;;;;;5073334;28;20526;-68
2023/03/23 06:18:24;;;;;;;2.83;0.80;;;12.70;90.50;;;;;;5072968;28;20594;-68
2023/03/23 06:20:50;;;;;;;1.80;1.17;;;12.70;90.60;;;;;;5072848;28;20510;-68
2023/03/23 06:23:17;;;;;;;3.00;1.23;;;12.80;90.60;;;;;;5072072;28;20423;-67
2023/03/23 06:25:43;;;;;;;4.50;1.17;;;12.80;90.60;;;;;;5060206;28;20485;-67
2023/03/23 06:28:09;;;;;;;1.50;0.63;;;12.80;90.70;;;;;;5072738;28;20489;-67
2023/03/23 06:30:35;;;;;;;1.50;0.70;;;12.80;90.60;;;;;;5073234;28;20553;-67
2023/03/23 06:33:05;;;;;;;2.67;0.90;;;12.80;90.60;;;;;;5072066;28;20430;-67
2023/03/23 06:35:33;;;;;;;7.03;1.17;;;12.80;90.70;;;;;;5065694;28;20443;-67
2023/03/23 06:38:01;;;;;;;1.80;0.80;;;12.70;90.70;;;;;;5071307;28;20431;-67
2023/03/23 06:40:28;;;;;;;2.90;1.00;;;12.80;90.60;;;;;;5071300;28;20450;-67
2023/03/23 06:42:54;;;;;;;1.73;1.00;;;12.70;90.80;;;;;;5070673;28;20868;-67
2023/03/23 06:45:20;;;;;;;12.90;1.27;;;12.70;90.90;;;;;;5071409;28;20983;-67
2023/03/23 06:47:48;;;;;;;2.13;0.97;;;12.70;90.90;;;;;;5071526;28;20504;-67
2023/03/23 06:50:16;;;;;;;1.73;0.80;;;12.70;90.70;;;;;;5070977;28;20212;-67
2023/03/23 06:52:45;;;;;;;4.03;1.23;;;12.80;90.80;;;;;;5069842;28;20518;-67
2023/03/23 06:55:12;;;;;;;1.63;0.93;;;12.80;90.90;;;;;;5069050;28;20416;-67
2023/03/23 06:57:38;;;;;;;3.80;1.43;;;12.80;90.80;;;;;;5069673;28;20423;-67
2023/03/23 07:00:13;;;;;;;3.10;0.77;;;12.90;90.80;;;;;;5070345;28;20427;-67
2023/03/23 07:02:42;;;;;;;2.00;1.07;;;13.00;90.70;;;;;;5070347;28;20197;-68
2023/03/23 07:05:09;;;;;;;1.83;1.03;;;13.00;90.70;;;;;;5069819;28;20423;-67
2023/03/23 07:07:39;;;;;;;3.10;1.40;;;13.00;90.80;;;;;;5069793;28;20419;-67
2023/03/23 07:10:08;;;;;;;2.23;1.10;;;13.00;90.90;;;;;;5070330;28;20935;-67
2023/03/23 07:12:35;;;;;;;1.60;0.97;;;12.90;90.60;;;;;;5069027;28;20442;-67
2023/03/23 07:15:02;;;;;;;3.07;1.00;;;12.90;91.00;;;;;;5069765;28;20500;-67
2023/03/23 07:17:28;;;;;;;2.13;0.83;;;13.00;90.70;;;;;;5069627;28;20431;-67
2023/03/23 07:19:54;;;;;;;1.80;1.00;;;13.00;90.90;;;;;;5069976;28;20430;-68
2023/03/23 07:22:20;;;;;;;2.23;1.00;;;12.90;91.20;;;;;;5069012;28;20205;-67
2023/03/23 07:24:46;;;;;;;1.90;0.90;;;12.90;91.00;;;;;;5070487;28;20454;-68
2023/03/23 07:27:11;;;;;;;3.57;1.10;;;12.90;91.10;;;;;;5070131;28;20606;-68
2023/03/23 07:29:38;;;;;;;7.33;1.77;;;12.80;91.40;;;;;;5066479;28;20201;-67
2023/03/23 07:32:05;;;;;;;1.57;0.70;;;12.90;91.50;;;;;;5069200;28;20181;-68
2023/03/23 07:34:31;;;;;;;2.60;1.17;;;12.90;91.60;;;;;;5068516;28;20419;-68
2023/03/23 07:36:57;;;;;;;1.77;0.80;;;12.80;91.90;;;;;;5069387;28;20844;-68
2023/03/23 07:39:23;;;;;;;2.97;1.13;;;12.80;91.90;;;;;;5069554;28;20437;-68
2023/03/23 07:41:49;;;;;;;2.37;1.00;;;12.80;91.90;;;;;;5069581;28;20516;-67
2023/03/23 07:44:15;;;;;;;2.37;1.03;;;12.80;92.10;;;;;;5069249;28;20434;-67
2023/03/23 07:46:41;;;;;;;2.50;1.43;;;12.70;92.20;;;;;;5069652;28;20554;-68
2023/03/23 07:49:08;;;;;;;3.53;1.23;;;12.80;92.00;;;;;;5068719;28;20629;-68
2023/03/23 07:51:34;;;;;;;1.70;0.97;;;13.00;92.00;;;;;;5068777;28;20419;-68
2023/03/23 07:54:02;;;;;;;1.50;0.83;;;13.10;91.90;;;;;;5066207;28;20430;-68
2023/03/23 07:56:28;;;;;;;2.07;1.07;;;13.20;91.90;;;;;;5068927;28;20386;-67
2023/03/23 07:58:53;;;;;;;3.10;1.17;;;13.30;91.80;;;;;;5069993;28;20832;-68
2023/03/23 08:01:19;;;;;;;3.00;0.97;;;13.40;92.00;;;;;;5070629;28;20430;-68
2023/03/23 08:03:45;;;;;;;2.17;0.90;;;13.40;92.00;;;;;;5070294;28;20272;-68
2023/03/23 08:06:10;;;;;;;2.90;1.13;;;13.60;91.90;;;;;;5070466;28;20526;-68
2023/03/23 08:08:37;;;;;;;2.00;1.00;;;13.60;92.00;;;;;;5069978;28;20208;-68
2023/03/23 08:11:03;;;;;;;5.53;1.43;;;13.60;92.30;;;;;;5070599;28;20177;-67
2023/03/23 08:13:29;;;;;;;2.33;1.20;;;13.70;92.10;;;;;;5069445;28;20419;-67
2023/03/23 08:15:55;;;;;;;2.70;1.47;;;13.70;92.40;;;;;;5070849;28;20533;-68
2023/03/23 08:18:20;;;;;;;2.20;1.20;;;13.80;92.40;;;;;;5070932;28;20270;-68
2023/03/23 08:20:46;;;;;;;2.43;1.00;;;13.90;92.60;;;;;;5070290;28;20927;-67
2023/03/23 08:23:12;;;;;;;20.80;1.50;;;14.10;92.20;;;;;;5070037;28;20195;-68
2023/03/23 08:25:38;;;;;;;1.60;0.80;;;14.20;92.10;;;;;;5070671;28;20183;-67
2023/03/23 08:28:04;;;;;;;1.70;1.00;;;14.30;92.10;;;;;;5069965;28;20542;-67
2023/03/23 08:30:32;;;;;;;2.50;1.10;;;14.30;92.40;;;;;;5070473;28;20185;-67
2023/03/23 08:33:00;;;;;;;2.27;1.20;;;14.30;92.40;;;;;;5070032;28;20468;-67
2023/03/23 08:35:26;;;;;;;2.17;1.27;;;14.30;92.40;;;;;;5070157;28;20457;-67
2023/03/23 08:37:52;;;;;;;2.33;1.03;;;14.10;92.50;;;;;;5069786;28;20447;-67
2023/03/23 08:40:20;;;;;;;3.00;1.07;;;14.10;92.80;;;;;;5070179;28;20894;-67
2023/03/23 08:42:47;;;;;;;5.37;1.30;;;14.00;93.10;;;;;;5069416;28;20429;-67
2023/03/23 08:45:17;;;;;;;2.30;1.27;;;13.90;93.20;;;;;;5069762;28;20423;-68
2023/03/23 08:47:44;;;;;;;2.30;0.87;;;13.90;93.40;;;;;;5070095;28;20439;-67
2023/03/23 08:50:14;;;;;;;2.00;0.87;;;13.90;93.90;;;;;;5070201;28;20421;-67
2023/03/23 08:52:40;;;;;;;1.80;0.93;;;14.10;93.30;;;;;;5068908;28;20514;-67
2023/03/23 08:55:08;;;;;;;2.77;1.07;;;14.00;93.50;;;;;;5070496;28;20837;-62
2023/03/23 08:57:35;;;;;;;4.53;1.10;;;14.10;93.50;;;;;;5069551;28;20173;-61
2023/03/23 09:00:17;;;;;;;6.77;1.93;;;14.10;93.30;;;;;;5069926;28;20473;-61
2023/03/23 09:02:44;;;;;;;2.07;0.93;;;14.10;93.40;;;;;;5069034;28;20454;-61
2023/03/23 09:05:10;;;;;;;1.83;0.90;;;14.10;93.90;;;;;;5070270;28;20430;-62
2023/03/23 09:07:42;;;;;;;7.07;1.97;;;14.20;93.70;;;;;;5069357;28;20857;-62
2023/03/23 09:10:09;;;;;;;2.17;0.90;;;14.30;93.90;;;;;;5070315;28;20431;-62
2023/03/23 09:12:35;;;;;;;8.90;1.50;;;14.40;93.90;;;;;;5069092;28;20852;-67
2023/03/23 09:15:08;;;;;;;1.50;0.90;;;14.40;93.90;;;;;;5070108;28;20423;-67
2023/03/23 09:17:37;;;;;;;19.13;9.07;;;14.50;93.40;;;;;;5070025;28;20436;-67
2023/03/23 09:20:10;;;;;;;5.23;1.40;;;14.60;93.40;;;;;;5070100;28;20431;-67
2023/03/23 09:22:36;;;;;;;2.03;1.00;;;14.60;93.70;;;;;;5069177;28;20458;-67
2023/03/23 09:25:02;;;;;;;6.10;1.40;;;14.60;93.90;;;;;;5069947;28;20418;-67
2023/03/23 09:27:27;;;;;;;2.77;1.27;;;14.60;94.30;;;;;;5061897;28;20443;-67
2023/03/23 09:29:55;;;;;;;2.53;1.03;;;14.50;94.00;;;;;;5056063;28;20214;-67
2023/03/23 09:32:22;;;;;;;4.03;1.07;;;14.60;93.60;;;;;;5068509;28;20188;-67
2023/03/23 09:34:48;;;;;;;1.80;0.87;;;14.60;93.80;;;;;;5063517;28;20450;-67
2023/03/23 09:37:14;;;;;;;3.33;1.23;;;14.40;94.10;;;;;;5056611;28;20463;-67
2023/03/23 09:39:39;;;;;;;2.23;1.00;;;14.40;94.40;;;;;;5068712;28;20525;-67
2023/03/23 09:42:11;;;;;;;1.83;1.00;;;14.30;94.40;;;;;;5068517;28;20606;-68
2023/03/23 09:44:47;;;;;;;3.57;1.03;;;14.30;94.50;;;;;;5068077;28;20188;-68
2023/03/23 09:47:57;;;;;;;2.33;1.10;;;14.20;94.90;;;;;;5068813;28;20488;-68
2023/03/23 09:50:31;;;;;;;2.73;1.33;;;14.20;94.80;;;;;;5056211;28;20432;-67
2023/03/23 09:53:08;;;;;;;3.70;1.57;;;14.30;95.10;;;;;;5067708;28;20417;-67
2023/03/23 09:55:35;;;;;;;1.80;0.93;;;14.50;94.60;;;;;;5068777;28;20427;-67
2023/03/23 09:58:18;;;;;;;2.27;1.10;;;14.60;94.20;;;;;;5069298;28;20411;-68
2023/03/23 10:01:02;;;;;;;4.53;1.67;;;14.70;94.60;;;;;;5072431;28;20612;-68
2023/03/23 10:03:38;;;;;;;3.80;1.13;;;14.90;93.70;;;;;;5071346;28;20447;-67
2023/03/23 10:06:04;;;;;;;3.83;1.43;;;15.20;93.70;;;;;;5071310;28;20426;-68
2023/03/23 10:08:32;;;;;;;1.70;0.97;;;15.40;93.40;;;;;;5061313;28;20458;-67
2023/03/23 10:11:33;;;;;;;2.77;1.00;;;15.60;93.20;;;;;;5069122;28;20924;-67
2023/03/23 10:14:08;;;;;;;1.73;1.00;;;15.70;92.70;;;;;;5067235;28;20762;-67
2023/03/23 10:16:54;;;;;;;2.60;1.03;;;15.40;93.10;;;;;;5064297;28;20430;-67
2023/03/23 10:19:31;;;;;;;2.60;0.93;;;15.30;93.30;;;;;;5058727;28;20419;-67
2023/03/23 10:22:04;;;;;;;2.13;0.97;;;15.40;92.90;;;;;;5070264;28;20874;-68
2023/03/23 10:24:55;;;;;;;2.23;1.10;;;15.50;93.20;;;;;;5070618;28;20408;-67
2023/03/23 10:27:37;;;;;;;1.77;0.90;;;15.70;93.30;;;;;;5058054;28;20446;-67
2023/03/23 10:30:27;;;;;;;2.63;1.30;;;15.60;92.70;;;;;;5071014;28;20524;-67
2023/03/23 10:32:57;;;;;;;8.43;0.83;;;15.60;92.60;;;;;;5070446;28;20442;-68
2023/03/23 10:35:30;;;;;;;2.67;0.87;;;15.50;93.00;;;;;;5070716;28;20518;-67
2023/03/23 10:38:01;;;;;;;2.53;1.20;;;15.50;92.80;;;;;;5070467;28;20500;-67
2023/03/23 10:40:30;;;;;;;2.07;1.00;;;15.40;92.90;;;;;;5070866;28;20412;-67
2023/03/23 10:42:57;;;;;;;5.83;1.60;;;15.30;93.30;;;;;;5069801;28;20420;-67
2023/03/23 10:45:32;;;;;;;5.03;1.23;;;15.30;93.40;;;;;;5071098;28;20833;-68
2023/03/23 10:48:03;;;;;;;3.30;1.20;;;15.20;93.10;;;;;;5070166;28;20806;-67
2023/03/23 10:50:35;;;;;;;1.50;0.80;;;15.40;93.40;;;;;;5070478;28;20930;-67
2023/03/23 10:53:11;;;;;;;1.60;0.93;;;15.70;92.80;;;;;;5069477;28;20424;-67
2023/03/23 10:55:41;;;;;;;2.77;1.20;;;15.90;93.00;;;;;;5070548;28;20872;-67
2023/03/23 10:58:10;;;;;;;2.03;0.83;;;16.10;93.10;;;;;;5069363;28;20595;-68
2023/03/23 11:00:46;;;;;;;2.03;0.93;;;16.10;92.80;;;;;;5070072;28;20452;-68
2023/03/23 11:03:15;;;;;;;2.27;1.00;;;16.10;92.80;;;;;;5069778;28;20430;-68
2023/03/23 11:05:44;;;;;;;3.83;1.57;;;15.90;92.50;;;;;;5070159;28;20931;-68
2023/03/23 11:08:16;;;;;;;2.20;1.30;;;16.20;93.00;;;;;;5069649;28;20451;-68
2023/03/23 11:11:15;;;;;;;4.47;1.57;;;16.10;92.50;;;;;;5071151;28;20505;-67
2023/03/23 11:13:46;;;;;;;2.53;1.17;;;16.10;92.60;;;;;;5053055;28;20423;-67
2023/03/23 11:16:27;;;;;;;2.13;0.90;;;16.10;92.90;;;;;;5071932;28;20749;-68
2023/03/23 11:18:53;;;;;;;1.70;0.77;;;16.20;93.20;;;;;;5071773;28;20430;-68
2023/03/23 11:21:22;;;;;;;1.70;0.90;;;16.00;93.50;;;;;;5071407;28;20422;-67
2023/03/23 11:23:59;;;;;;;2.17;1.13;;;15.80;93.90;;;;;;5071534;28;20546;-67
2023/03/23 11:26:31;;;;;;;2.43;0.80;;;15.60;94.30;;;;;;5072000;28;20422;-68
2023/03/23 11:28:57;;;;;;;3.90;1.60;;;15.70;94.10;;;;;;5071520;28;20455;-68
2023/03/23 11:31:28;;;;;;;2.00;0.87;;;15.70;94.40;;;;;;5071704;28;20488;-68
2023/03/23 11:34:11;;;;;;;1.60;0.90;;;15.80;93.70;;;;;;5071297;28;20447;-67
2023/03/23 11:36:42;;;;;;;2.17;1.17;;;15.80;93.30;;;;;;5071094;28;20419;-68
2023/03/23 11:39:25;;;;;;;2.00;1.10;;;15.90;93.70;;;;;;5071745;28;20785;-68
2023/03/23 11:41:51;;;;;;;3.93;1.53;;;16.00;92.60;;;;;;5070715;28;20518;-67
2023/03/23 11:44:17;;;;;;;3.97;1.13;;;16.00;92.90;;;;;;5070549;28;20462;-67
2023/03/23 11:47:03;;;;;;;2.07;1.00;;;16.00;93.00;;;;;;5071335;28;20798;-67
2023/03/23 11:49:55;;;;;;;18.13;1.70;;;16.00;92.30;;;;;;5071199;28;20469;-67
2023/03/23 11:52:44;;;;;;;2.83;0.80;;;16.10;92.10;;;;;;5070640;28;20407;-67
2023/03/23 11:55:32;;;;;;;1.97;0.93;;;16.00;92.50;;;;;;5040146;28;20423;-66
2023/03/23 11:58:05;;;;;;;5.40;1.23;;;15.90;92.00;;;;;;5070295;28;20763;-66
2023/03/23 12:00:31;;;;;;;3.07;1.10;;;16.00;92.20;;;;;;5071358;28;20408;-67
2023/03/23 12:03:06;;;;;;;3.40;1.40;;;16.00;92.30;;;;;;5070023;28;20454;-66
2023/03/23 12:05:44;;;;;;;2.03;0.90;;;16.10;92.00;;;;;;5071138;28;20222;-66
2023/03/23 12:08:28;;;;;;;2.27;0.90;;;16.00;91.80;;;;;;5070426;28;20491;-69
2023/03/23 12:11:28;;;;;;;2.20;0.80;;;16.00;92.10;;;;;;5070673;28;20904;-67
2023/03/23 12:14:06;;;;;;;2.00;1.20;;;15.90;92.40;;;;;;5070466;28;20506;-67
2023/03/23 12:16:50;;;;;;;2.10;0.90;;;15.90;91.90;;;;;;5071071;28;20473;-67
2023/03/23 12:19:35;;;;;;;2.23;1.10;;;15.70;91.80;;;;;;5067734;28;20445;-67
2023/03/23 12:22:33;;;;;;;2.07;1.10;;;15.70;92.00;;;;;;5066888;28;20451;-67
2023/03/23 12:25:29;;;;;;;2.20;1.13;;;15.70;92.40;;;;;;5065362;28;21002;-66
2023/03/23 12:28:20;;;;;;;1.40;0.70;;;15.70;91.80;;;;;;5065718;28;21006;-67
2023/03/23 12:31:09;;;;;;;1.53;0.80;;;15.70;91.90;;;;;;5057586;28;20434;-67
2023/03/23 12:33:46;;;;;;;4.57;0.90;;;15.70;91.60;;;;;;5059102;28;20450;-68
2023/03/23 12:36:22;;;;;;;2.47;1.20;;;15.70;91.80;;;;;;5066832;28;20446;-67
2023/03/23 12:38:58;;;;;;;4.50;1.23;;;15.70;91.70;;;;;;5069121;28;20634;-67
2023/03/23 12:41:47;;;;;;;1.73;0.80;;;15.80;91.10;;;;;;5067023;28;20519;-67
2023/03/23 12:44:15;;;;;;;1.80;0.80;;;15.90;91.70;;;;;;5064366;28;20938;-67
2023/03/23 12:47:00;;;;;;;3.73;1.10;;;15.90;91.40;;;;;;5068272;28;20431;-67
2023/03/23 12:49:48;;;;;;;1.90;1.03;;;16.10;90.60;;;;;;5063467;28;20581;-68
2023/03/23 12:52:26;;;;;;;1.97;0.87;;;16.00;91.00;;;;;;5069823;28;20407;-68
2023/03/23 12:55:14;;;;;;;2.47;1.27;;;16.10;90.50;;;;;;5070395;28;20411;-67
2023/03/23 12:58:01;;;;;;;2.30;1.10;;;16.20;91.10;;;;;;5064348;28;20905;-67
2023/03/23 13:00:34;;;;;;;2.43;0.87;;;16.20;90.90;;;;;;5069280;28;20426;-67
2023/03/23 13:03:40;;;;;;;1.97;1.10;;;16.30;90.60;;;;;;5069480;28;20435;-68